Time;durP1;ratioP1;P1;durP2;ratioP2;P2;SDS_P1;SDS_P2;PMS_P1;PMS_P2;Temp;Humidity;BMP_temperature;BMP_pressure;BME280_temperature;BME280_humidity;BME280_pressure;Samples;Min_cycle;Max_cycle;Signal;HPM_P1;HPM_P2
2022/02/18 00:00:57;;;;;;;0.87;0.87;;;5.70;99.90;;;;;;4991716;28;20439;-68
2022/02/18 00:03:24;;;;;;;0.70;0.70;;;5.70;99.90;;;;;;4974034;28;20412;-68
2022/02/18 00:05:49;;;;;;;1.80;1.40;;;5.70;99.90;;;;;;4973778;28;20296;-67
2022/02/18 00:08:15;;;;;;;7.03;1.67;;;5.60;99.90;;;;;;4991572;28;20492;-68
2022/02/18 00:10:41;;;;;;;1.13;0.90;;;5.70;99.90;;;;;;4991749;28;20311;-68
2022/02/18 00:13:07;;;;;;;4.87;1.07;;;5.80;99.90;;;;;;4991662;28;20215;-68
2022/02/18 00:15:33;;;;;;;3.40;0.90;;;5.80;99.90;;;;;;4991506;28;20745;-68
2022/02/18 00:18:01;;;;;;;1.23;1.13;;;5.70;99.90;;;;;;4991414;28;20644;-68
2022/02/18 00:20:27;;;;;;;2.20;0.83;;;5.70;99.90;;;;;;4991415;28;20762;-68
2022/02/18 00:22:52;;;;;;;0.77;0.77;;;5.60;99.90;;;;;;4991944;28;20414;-67
2022/02/18 00:25:18;;;;;;;1.67;0.83;;;5.60;99.90;;;;;;5017441;23;20239;-70
2022/02/18 00:27:43;;;;;;;1.57;1.47;;;5.70;99.90;;;;;;5014132;28;20184;-71
2022/02/18 00:30:10;;;;;;;0.90;0.77;;;5.80;99.90;;;;;;5014998;28;20176;-71
2022/02/18 00:32:36;;;;;;;2.03;1.10;;;5.70;99.90;;;;;;5015141;28;20177;-70
2022/02/18 00:35:02;;;;;;;3.90;0.90;;;5.60;99.90;;;;;;5014896;28;20410;-70
2022/02/18 00:37:27;;;;;;;0.87;0.70;;;5.80;99.90;;;;;;5014801;28;20915;-70
2022/02/18 00:39:56;;;;;;;2.80;0.97;;;5.70;99.90;;;;;;5015370;28;20411;-70
2022/02/18 00:42:22;;;;;;;2.30;1.20;;;5.60;99.90;;;;;;5014787;28;20172;-70
2022/02/18 00:44:47;;;;;;;3.27;1.47;;;5.70;99.90;;;;;;5014378;28;20447;-70
2022/02/18 00:47:13;;;;;;;0.80;0.80;;;5.70;99.90;;;;;;5014468;28;20455;-70
2022/02/18 00:49:38;;;;;;;2.70;1.20;;;5.70;99.90;;;;;;5014478;28;20207;-70
2022/02/18 00:52:04;;;;;;;0.87;0.87;;;5.70;99.90;;;;;;5014453;28;20169;-70
2022/02/18 00:54:30;;;;;;;1.37;1.13;;;5.70;99.90;;;;;;5014543;28;20263;-70
2022/02/18 00:56:55;;;;;;;1.13;1.13;;;5.70;99.90;;;;;;5014528;28;20850;-70
2022/02/18 00:59:22;;;;;;;1.70;1.60;;;5.70;99.90;;;;;;5014772;28;20172;-70
2022/02/18 01:01:48;;;;;;;2.23;2.03;;;5.60;99.90;;;;;;4997037;28;20738;-70
2022/02/18 01:04:13;;;;;;;0.90;0.87;;;5.60;99.90;;;;;;5014711;28;20790;-70
2022/02/18 01:06:39;;;;;;;4.33;1.00;;;5.60;99.90;;;;;;5018678;28;20447;-71
2022/02/18 01:09:06;;;;;;;0.70;0.70;;;5.80;99.90;;;;;;5022349;28;20291;-71
2022/02/18 01:11:31;;;;;;;1.10;0.80;;;5.70;99.90;;;;;;5021283;28;20429;-71
2022/02/18 01:13:57;;;;;;;1.90;1.80;;;5.70;99.90;;;;;;5023208;28;20839;-71
2022/02/18 01:16:22;;;;;;;2.00;0.87;;;5.70;99.90;;;;;;5021703;28;20604;-71
2022/02/18 01:18:48;;;;;;;4.43;1.20;;;5.70;99.90;;;;;;5022771;28;20195;-70
2022/02/18 01:21:13;;;;;;;1.40;0.80;;;5.70;99.90;;;;;;5022680;28;20172;-71
2022/02/18 01:23:39;;;;;;;1.07;0.97;;;5.70;99.90;;;;;;5022648;28;20557;-71
2022/02/18 01:26:05;;;;;;;1.07;0.70;;;5.80;99.90;;;;;;5023171;28;20211;-71
2022/02/18 01:28:30;;;;;;;1.00;0.90;;;5.70;99.90;;;;;;5020817;28;20176;-71
2022/02/18 01:30:56;;;;;;;1.47;1.37;;;5.60;99.90;;;;;;5022907;28;20396;-71
2022/02/18 01:33:22;;;;;;;0.90;0.80;;;5.70;99.90;;;;;;5019007;28;20232;-70
2022/02/18 01:35:48;;;;;;;0.77;0.77;;;5.60;99.90;;;;;;5019137;28;20435;-70
2022/02/18 01:38:15;;;;;;;1.83;1.33;;;5.50;99.90;;;;;;5014170;28;20172;-70
2022/02/18 01:40:41;;;;;;;2.73;1.97;;;5.60;99.90;;;;;;5015897;28;20411;-70
2022/02/18 01:43:06;;;;;;;1.20;1.00;;;5.60;99.90;;;;;;5015620;28;20494;-70
2022/02/18 01:45:32;;;;;;;1.03;0.93;;;5.60;99.90;;;;;;5015616;28;20462;-71
2022/02/18 01:47:57;;;;;;;1.43;0.90;;;5.60;99.90;;;;;;5016514;28;20173;-71
2022/02/18 01:50:23;;;;;;;0.70;0.70;;;5.50;99.90;;;;;;5014945;28;20175;-70
2022/02/18 01:52:52;;;;;;;0.80;0.80;;;5.60;99.90;;;;;;5018237;28;20659;-71
2022/02/18 01:55:20;;;;;;;1.83;1.00;;;5.50;99.90;;;;;;5019538;28;20192;-71
2022/02/18 01:57:48;;;;;;;3.60;0.93;;;5.50;99.90;;;;;;5001755;28;20925;-70
2022/02/18 02:00:19;;;;;;;1.27;1.17;;;5.60;99.90;;;;;;5019670;28;20399;-70
2022/02/18 02:02:44;;;;;;;3.40;1.17;;;5.50;99.90;;;;;;5018367;28;20403;-71
2022/02/18 02:05:11;;;;;;;0.70;0.70;;;5.70;99.90;;;;;;5000347;28;20518;-69
2022/02/18 02:07:38;;;;;;;1.33;1.23;;;5.60;99.90;;;;;;5000684;28;20847;-71
2022/02/18 02:10:05;;;;;;;6.30;1.50;;;5.60;99.90;;;;;;5018567;28;20783;-70
2022/02/18 02:12:30;;;;;;;2.43;1.57;;;5.40;99.90;;;;;;5013271;28;20410;-71
2022/02/18 02:14:56;;;;;;;4.97;2.00;;;5.60;99.90;;;;;;5010342;28;20439;-70
2022/02/18 02:17:21;;;;;;;5.70;2.67;;;5.60;99.90;;;;;;5012205;28;20238;-70
2022/02/18 02:19:48;;;;;;;2.27;1.53;;;5.60;99.90;;;;;;5012990;28;20176;-71
2022/02/18 02:22:15;;;;;;;5.30;1.27;;;5.60;99.90;;;;;;5013531;28;20195;-70
2022/02/18 02:24:41;;;;;;;2.80;1.40;;;5.50;99.90;;;;;;5012510;28;20492;-70
2022/02/18 02:27:06;;;;;;;3.93;1.10;;;5.50;99.90;;;;;;5012469;28;21059;-70
2022/02/18 02:29:32;;;;;;;1.23;0.90;;;5.50;99.90;;;;;;5010212;28;20442;-70
2022/02/18 02:31:58;;;;;;;1.47;1.00;;;5.40;99.90;;;;;;5012515;28;20192;-71
2022/02/18 02:34:23;;;;;;;2.00;1.33;;;5.30;99.90;;;;;;5012742;28;20173;-71
2022/02/18 02:36:50;;;;;;;2.30;1.00;;;5.30;99.90;;;;;;5012398;28;20196;-71
2022/02/18 02:39:15;;;;;;;0.70;0.70;;;5.30;99.90;;;;;;5012677;28;20177;-71
2022/02/18 02:41:41;;;;;;;1.30;1.13;;;5.40;99.90;;;;;;5012481;28;20461;-70
2022/02/18 02:44:06;;;;;;;1.53;1.10;;;5.50;99.90;;;;;;5012421;28;20500;-70
2022/02/18 02:46:36;;;;;;;2.07;0.90;;;5.40;99.90;;;;;;5012307;28;20262;-70
2022/02/18 02:49:03;;;;;;;0.67;0.67;;;5.30;99.90;;;;;;5012211;28;20243;-70
2022/02/18 02:51:28;;;;;;;0.90;0.70;;;5.30;99.90;;;;;;5012373;28;20511;-70
2022/02/18 02:53:54;;;;;;;1.27;1.00;;;5.30;99.90;;;;;;5012370;28;20400;-71
2022/02/18 02:56:19;;;;;;;5.67;1.03;;;5.30;99.90;;;;;;5012035;28;20200;-70
2022/02/18 02:58:45;;;;;;;3.40;3.10;;;5.20;99.90;;;;;;5012419;28;20196;-73
2022/02/18 03:01:10;;;;;;;0.70;0.70;;;5.10;99.90;;;;;;5012208;28;20246;-70
2022/02/18 03:03:36;;;;;;;6.00;1.43;;;5.20;99.90;;;;;;5012148;28;20176;-70
2022/02/18 03:06:01;;;;;;;1.67;1.17;;;5.10;99.90;;;;;;5011874;28;20199;-70
2022/02/18 03:08:27;;;;;;;1.87;0.80;;;5.20;99.90;;;;;;5012238;28;20204;-70
2022/02/18 03:13:38;;;;;;;0.70;0.70;;;5.20;99.90;;;;;;5012077;28;20207;-69
2022/02/18 03:16:04;;;;;;;1.20;1.10;;;5.00;99.90;;;;;;5011904;28;20435;-70
2022/02/18 03:18:30;;;;;;;2.10;1.23;;;4.90;99.90;;;;;;5012099;28;20419;-70
2022/02/18 03:20:55;;;;;;;2.20;1.70;;;4.90;99.90;;;;;;5012014;28;20406;-70
2022/02/18 03:23:21;;;;;;;1.37;0.90;;;4.90;99.90;;;;;;5011655;28;20176;-70
2022/02/18 03:25:46;;;;;;;0.90;0.90;;;5.10;99.90;;;;;;5011458;28;20219;-70
2022/02/18 03:28:12;;;;;;;3.73;1.97;;;5.10;99.90;;;;;;5012006;28;20255;-70
2022/02/18 03:30:37;;;;;;;0.70;0.70;;;5.10;99.90;;;;;;5011850;28;20180;-70
2022/02/18 03:33:03;;;;;;;1.77;1.60;;;5.00;99.90;;;;;;5011836;28;20218;-70
2022/02/18 03:35:28;;;;;;;1.60;1.47;;;4.90;99.90;;;;;;5011717;28;20191;-71
2022/02/18 03:37:54;;;;;;;1.00;0.90;;;5.10;99.90;;;;;;5011774;28;20529;-71
2022/02/18 03:40:20;;;;;;;1.07;0.97;;;5.00;99.90;;;;;;5011845;28;20173;-70
2022/02/18 03:42:46;;;;;;;1.07;0.97;;;4.90;99.90;;;;;;5011998;28;20263;-69
2022/02/18 03:45:12;;;;;;;2.10;0.70;;;4.90;99.90;;;;;;5011557;28;20184;-70
2022/02/18 03:47:37;;;;;;;3.63;2.10;;;4.70;99.90;;;;;;5011690;28;20461;-70
2022/02/18 03:50:03;;;;;;;2.90;1.20;;;4.80;99.90;;;;;;5011678;28;20191;-70
2022/02/18 03:52:29;;;;;;;0.87;0.87;;;4.90;99.90;;;;;;5011467;28;20176;-70
2022/02/18 03:54:54;;;;;;;1.00;0.80;;;5.00;99.90;;;;;;5011463;28;20211;-70
2022/02/18 03:57:19;;;;;;;2.70;0.90;;;4.90;99.90;;;;;;5012188;28;20259;-70
2022/02/18 03:59:45;;;;;;;4.87;1.50;;;4.80;99.90;;;;;;5011624;28;20192;-70
2022/02/18 04:02:10;;;;;;;0.77;0.77;;;4.90;99.90;;;;;;5013712;28;20199;-69
2022/02/18 04:04:36;;;;;;;1.17;1.07;;;4.90;99.90;;;;;;5015420;28;20790;-70
2022/02/18 04:07:01;;;;;;;2.40;1.20;;;5.00;99.90;;;;;;5015322;28;20200;-70
2022/02/18 04:09:27;;;;;;;1.23;1.13;;;5.00;99.90;;;;;;5015318;28;20276;-70
2022/02/18 04:11:52;;;;;;;1.00;0.80;;;5.00;99.90;;;;;;5015204;28;20196;-69
2022/02/18 04:14:18;;;;;;;2.20;1.10;;;5.00;99.90;;;;;;5015175;28;20164;-70
2022/02/18 04:16:43;;;;;;;4.10;0.97;;;4.90;99.90;;;;;;4997525;28;20604;-70
2022/02/18 04:19:09;;;;;;;0.83;0.83;;;4.90;99.90;;;;;;5015152;28;20673;-70
2022/02/18 04:21:34;;;;;;;1.63;1.33;;;5.10;99.90;;;;;;5015021;28;20168;-69
2022/02/18 04:24:00;;;;;;;2.20;0.87;;;5.00;99.90;;;;;;5014866;28;20223;-69
2022/02/18 04:26:25;;;;;;;0.80;0.80;;;5.00;99.90;;;;;;5014656;28;20240;-70
2022/02/18 04:28:51;;;;;;;0.60;0.60;;;5.00;99.90;;;;;;5015100;28;20303;-70
2022/02/18 04:31:17;;;;;;;1.63;0.80;;;4.90;99.90;;;;;;5015070;28;20164;-70
2022/02/18 04:33:42;;;;;;;0.80;0.80;;;4.90;99.90;;;;;;5014927;28;20234;-70
2022/02/18 04:36:08;;;;;;;2.70;1.17;;;4.90;99.90;;;;;;5014624;28;20434;-70
2022/02/18 04:38:34;;;;;;;1.03;0.93;;;4.90;99.90;;;;;;5014650;28;20255;-70
2022/02/18 04:40:59;;;;;;;2.60;0.87;;;4.70;99.90;;;;;;5014781;28;20983;-71
2022/02/18 04:43:25;;;;;;;3.90;1.00;;;4.80;99.90;;;;;;5014719;28;20695;-70
2022/02/18 04:45:50;;;;;;;1.00;1.00;;;4.80;99.90;;;;;;5014501;28;20227;-71
2022/02/18 04:48:16;;;;;;;4.73;0.93;;;4.80;99.90;;;;;;5014540;28;20514;-70
2022/02/18 04:50:41;;;;;;;1.00;0.90;;;4.80;99.90;;;;;;5014619;28;20660;-70
2022/02/18 04:53:07;;;;;;;2.53;1.23;;;4.80;99.90;;;;;;5014272;28;20168;-69
2022/02/18 04:55:32;;;;;;;1.17;0.90;;;4.80;99.90;;;;;;4996806;28;20199;-70
2022/02/18 04:57:58;;;;;;;1.63;1.40;;;4.80;99.90;;;;;;5014482;28;20659;-70
2022/02/18 05:00:23;;;;;;;0.70;0.60;;;4.70;99.90;;;;;;5014385;28;20176;-70
2022/02/18 05:02:49;;;;;;;0.90;0.90;;;4.80;99.90;;;;;;5014224;28;20176;-71
2022/02/18 05:05:15;;;;;;;1.40;0.83;;;4.70;99.90;;;;;;5014240;28;20670;-71
2022/02/18 05:07:40;;;;;;;1.00;1.00;;;4.70;99.90;;;;;;5014180;28;20199;-70
2022/02/18 05:10:07;;;;;;;1.27;1.10;;;4.60;99.90;;;;;;5014309;28;20172;-70
2022/02/18 05:12:32;;;;;;;0.80;0.80;;;4.60;99.90;;;;;;5013975;28;20172;-69
2022/02/18 05:14:58;;;;;;;0.70;0.70;;;4.60;99.90;;;;;;5013938;28;20415;-69
2022/02/18 05:17:24;;;;;;;1.30;0.77;;;4.60;99.90;;;;;;5013937;28;20415;-70
2022/02/18 05:19:49;;;;;;;1.47;1.37;;;4.60;99.90;;;;;;5014044;28;20184;-71
2022/02/18 05:22:14;;;;;;;1.50;1.07;;;4.60;99.90;;;;;;5014037;28;20180;-70
2022/02/18 05:24:40;;;;;;;0.90;0.90;;;4.50;99.90;;;;;;5013870;28;20169;-70
2022/02/18 05:27:06;;;;;;;3.03;1.43;;;4.60;99.90;;;;;;5013613;28;20793;-71
2022/02/18 05:29:31;;;;;;;1.10;1.00;;;4.60;99.90;;;;;;5013848;28;20172;-70
2022/02/18 05:31:57;;;;;;;0.80;0.80;;;4.50;99.90;;;;;;5013731;28;20547;-71
2022/02/18 05:34:22;;;;;;;0.70;0.70;;;4.40;99.90;;;;;;5013838;28;20164;-70
2022/02/18 05:36:48;;;;;;;2.90;0.80;;;4.20;99.90;;;;;;5013549;28;20839;-70
2022/02/18 05:39:13;;;;;;;2.33;1.33;;;4.50;99.90;;;;;;5013599;28;20181;-71
2022/02/18 05:41:39;;;;;;;2.40;1.07;;;4.40;99.90;;;;;;5013785;28;20200;-70
2022/02/18 05:44:05;;;;;;;1.83;1.57;;;4.40;99.90;;;;;;5013467;28;20536;-70
2022/02/18 05:46:31;;;;;;;1.73;1.40;;;4.40;99.90;;;;;;5013102;28;20459;-71
2022/02/18 05:48:56;;;;;;;1.23;1.13;;;4.40;99.90;;;;;;5013460;28;20405;-70
2022/02/18 05:51:22;;;;;;;1.00;0.90;;;4.30;99.90;;;;;;5013351;28;20501;-71
2022/02/18 05:53:47;;;;;;;2.80;1.70;;;4.50;99.90;;;;;;5013581;28;20169;-70
2022/02/18 05:56:13;;;;;;;1.27;1.10;;;4.50;99.90;;;;;;4995556;28;20192;-70
2022/02/18 05:58:38;;;;;;;3.50;2.43;;;4.40;99.90;;;;;;5013502;28;20539;-70
2022/02/18 06:01:04;;;;;;;2.17;1.20;;;4.50;99.90;;;;;;5013925;28;20650;-69
2022/02/18 06:03:29;;;;;;;1.60;1.33;;;4.50;99.90;;;;;;5013199;28;20169;-70
2022/02/18 06:05:55;;;;;;;1.00;1.00;;;4.50;99.90;;;;;;5012724;28;20200;-69
2022/02/18 06:08:20;;;;;;;2.10;1.13;;;4.40;99.90;;;;;;5013078;28;20187;-71
2022/02/18 06:10:45;;;;;;;1.73;1.13;;;4.60;99.90;;;;;;5013083;28;20188;-70
2022/02/18 06:13:11;;;;;;;8.83;1.57;;;4.50;99.90;;;;;;5013089;28;20254;-70
2022/02/18 06:15:36;;;;;;;0.80;0.80;;;4.60;99.90;;;;;;5013369;28;20275;-71
2022/02/18 06:18:03;;;;;;;2.23;1.63;;;4.50;99.90;;;;;;5013198;28;20203;-70
2022/02/18 06:20:28;;;;;;;7.10;1.93;;;4.50;99.90;;;;;;5014052;28;20168;-69
2022/02/18 06:22:54;;;;;;;1.90;1.50;;;4.60;99.90;;;;;;5012971;28;20858;-69
2022/02/18 06:25:19;;;;;;;1.73;1.63;;;4.60;99.90;;;;;;5012415;28;20216;-71
2022/02/18 06:27:44;;;;;;;1.43;1.30;;;4.60;99.90;;;;;;5012880;28;20196;-70
2022/02/18 06:30:11;;;;;;;1.60;1.50;;;4.70;99.90;;;;;;5012675;28;20200;-70
2022/02/18 06:32:36;;;;;;;1.97;1.40;;;4.60;99.90;;;;;;5012596;28;20230;-71
2022/02/18 06:35:03;;;;;;;1.80;1.23;;;4.80;99.90;;;;;;5012432;28;20408;-71
2022/02/18 06:37:28;;;;;;;3.83;1.43;;;4.80;99.90;;;;;;5012694;28;20643;-70
2022/02/18 06:39:54;;;;;;;3.57;1.10;;;4.70;99.90;;;;;;5012552;28;20413;-71
2022/02/18 06:42:20;;;;;;;4.33;2.80;;;5.10;99.90;;;;;;5012230;28;20168;-71
2022/02/18 06:44:45;;;;;;;2.63;1.70;;;5.00;99.90;;;;;;5012332;28;20172;-71
2022/02/18 06:47:11;;;;;;;1.70;1.03;;;4.80;99.90;;;;;;5012333;28;20200;-71
2022/02/18 06:49:36;;;;;;;2.00;1.90;;;5.00;99.90;;;;;;5012155;28;20631;-71
2022/02/18 06:52:02;;;;;;;6.40;1.63;;;4.90;99.90;;;;;;5010021;28;20714;-70
2022/02/18 06:54:30;;;;;;;2.30;1.03;;;5.00;99.90;;;;;;5011867;28;20626;-71
2022/02/18 06:57:00;;;;;;;1.30;1.20;;;4.90;99.90;;;;;;5011952;28;20430;-71
2022/02/18 06:59:26;;;;;;;1.70;1.60;;;5.10;99.90;;;;;;5012085;28;20932;-71
2022/02/18 07:01:54;;;;;;;4.83;1.97;;;5.10;99.90;;;;;;5011809;28;20411;-72
2022/02/18 07:04:24;;;;;;;2.00;1.53;;;5.20;99.90;;;;;;5011879;28;20175;-71
2022/02/18 07:06:50;;;;;;;1.90;1.40;;;5.20;99.90;;;;;;5011884;28;20992;-70
2022/02/18 07:09:16;;;;;;;1.40;1.30;;;5.40;99.90;;;;;;5012280;28;20873;-71
2022/02/18 07:11:41;;;;;;;3.40;2.73;;;5.40;99.90;;;;;;5012087;28;20432;-70
2022/02/18 07:14:08;;;;;;;3.10;2.10;;;5.20;99.90;;;;;;5012148;28;20173;-71
2022/02/18 07:16:33;;;;;;;6.70;2.13;;;5.40;99.90;;;;;;5012136;28;20199;-70
2022/02/18 07:19:02;;;;;;;2.17;1.97;;;5.20;99.90;;;;;;5012001;28;20415;-73
2022/02/18 07:21:28;;;;;;;4.00;1.97;;;5.30;99.90;;;;;;5012475;28;20184;-72
2022/02/18 07:23:53;;;;;;;4.13;2.30;;;5.40;99.90;;;;;;5012074;28;20779;-70
2022/02/18 07:26:19;;;;;;;5.43;2.27;;;5.40;99.90;;;;;;5011565;28;20204;-71
2022/02/18 07:28:44;;;;;;;4.73;2.40;;;6.20;99.90;;;;;;5011627;28;20186;-72
2022/02/18 07:31:10;;;;;;;2.03;1.60;;;6.30;99.90;;;;;;5011983;28;20168;-73
2022/02/18 07:33:36;;;;;;;1.97;1.77;;;6.00;99.90;;;;;;5011618;28;20266;-71
2022/02/18 07:36:02;;;;;;;2.10;1.50;;;6.00;99.90;;;;;;5011999;28;20195;-71
2022/02/18 07:38:28;;;;;;;3.17;2.63;;;6.10;99.90;;;;;;5015810;28;20415;-72
2022/02/18 07:40:53;;;;;;;1.97;1.50;;;6.20;99.90;;;;;;5015739;28;20439;-72
2022/02/18 07:43:18;;;;;;;8.97;2.47;;;6.30;99.90;;;;;;5015929;28;20210;-71
2022/02/18 07:45:44;;;;;;;3.27;2.20;;;6.80;99.90;;;;;;5015938;28;20192;-71
2022/02/18 07:48:09;;;;;;;7.03;3.27;;;6.70;99.90;;;;;;4997578;28;20235;-71
2022/02/18 07:50:35;;;;;;;3.97;2.87;;;6.70;99.90;;;;;;5015540;28;20192;-71
2022/02/18 07:53:00;;;;;;;7.70;2.60;;;6.90;99.90;;;;;;5018061;28;20555;-71
2022/02/18 07:55:26;;;;;;;2.33;2.10;;;7.00;99.90;;;;;;5035094;28;20218;-71
2022/02/18 07:57:52;;;;;;;1.87;1.77;;;6.80;99.90;;;;;;5021436;28;20177;-71
2022/02/18 08:00:17;;;;;;;4.60;2.03;;;7.00;99.90;;;;;;5015700;28;20174;-71
2022/02/18 08:02:43;;;;;;;2.83;2.20;;;7.40;99.90;;;;;;5015152;28;20273;-71
2022/02/18 08:05:09;;;;;;;2.40;1.90;;;7.40;99.90;;;;;;5015289;28;20194;-71
2022/02/18 08:07:34;;;;;;;5.23;1.83;;;7.30;99.90;;;;;;5015310;28;20316;-72
2022/02/18 08:10:00;;;;;;;2.30;1.70;;;7.30;99.90;;;;;;5015500;28;20498;-72
2022/02/18 08:12:25;;;;;;;1.83;1.73;;;7.10;99.90;;;;;;5015410;28;20173;-72
2022/02/18 08:14:51;;;;;;;3.37;1.87;;;7.10;99.90;;;;;;5015571;28;20260;-72
2022/02/18 08:17:16;;;;;;;2.47;2.27;;;7.30;99.90;;;;;;5015232;28;20678;-72
2022/02/18 08:19:42;;;;;;;2.70;1.37;;;7.40;99.90;;;;;;5015242;28;20240;-72
2022/02/18 08:22:07;;;;;;;1.97;1.87;;;7.30;99.90;;;;;;5015198;28;20165;-72
2022/02/18 08:24:33;;;;;;;2.80;1.80;;;7.20;99.90;;;;;;5015384;28;20164;-72
2022/02/18 08:27:01;;;;;;;2.97;2.30;;;7.10;99.90;;;;;;5015077;28;20196;-72
2022/02/18 08:29:26;;;;;;;3.27;1.90;;;7.00;99.90;;;;;;5015198;28;20403;-72
2022/02/18 08:31:53;;;;;;;2.20;2.00;;;7.00;99.90;;;;;;5014981;28;20904;-72
2022/02/18 08:34:20;;;;;;;5.00;2.20;;;7.30;99.90;;;;;;5014804;28;20183;-72
2022/02/18 08:36:45;;;;;;;2.97;1.87;;;7.40;99.90;;;;;;5014891;28;20840;-72
2022/02/18 08:39:11;;;;;;;2.27;2.13;;;7.20;99.90;;;;;;5015116;28;20399;-70
2022/02/18 08:41:37;;;;;;;3.20;1.73;;;7.30;99.90;;;;;;5014692;28;20226;-70
2022/02/18 08:44:04;;;;;;;2.20;1.87;;;7.40;99.90;;;;;;5014566;28;20560;-70
2022/02/18 08:46:31;;;;;;;3.67;2.87;;;7.70;99.90;;;;;;5014297;28;20447;-71
2022/02/18 08:48:58;;;;;;;8.63;2.43;;;7.60;99.90;;;;;;5014464;28;20413;-70
2022/02/18 08:51:24;;;;;;;4.33;2.07;;;7.50;99.90;;;;;;5014482;28;20487;-73
2022/02/18 08:53:50;;;;;;;1.23;1.13;;;7.50;99.90;;;;;;5014309;28;20411;-71
2022/02/18 08:56:17;;;;;;;3.70;1.87;;;7.60;99.90;;;;;;5014233;28;20440;-71
2022/02/18 08:58:43;;;;;;;3.97;1.70;;;7.90;99.90;;;;;;5014404;28;20232;-71
2022/02/18 09:01:08;;;;;;;3.23;1.33;;;7.60;99.90;;;;;;5014573;28;20417;-71
2022/02/18 09:03:34;;;;;;;2.63;1.33;;;7.60;99.90;;;;;;5014325;28;20428;-71
2022/02/18 09:05:59;;;;;;;2.03;1.77;;;7.60;99.90;;;;;;5014273;28;20690;-71
2022/02/18 09:08:25;;;;;;;3.07;1.80;;;7.80;99.90;;;;;;5014259;28;20234;-71
2022/02/18 09:10:52;;;;;;;1.20;1.07;;;8.00;99.90;;;;;;5014191;28;20670;-71
2022/02/18 09:13:20;;;;;;;2.90;1.90;;;7.80;99.90;;;;;;5014106;28;20454;-72
2022/02/18 09:15:46;;;;;;;5.00;2.67;;;7.70;99.90;;;;;;5014233;28;20463;-71
2022/02/18 09:18:12;;;;;;;2.00;1.73;;;7.70;99.90;;;;;;5014335;28;20757;-71
2022/02/18 09:20:37;;;;;;;3.43;1.93;;;7.70;99.90;;;;;;5013593;28;20488;-71
2022/02/18 09:23:02;;;;;;;3.27;2.70;;;7.70;99.90;;;;;;5013736;28;20542;-71
2022/02/18 09:25:30;;;;;;;3.63;1.87;;;7.80;99.90;;;;;;5013894;28;20710;-71
2022/02/18 09:27:55;;;;;;;3.47;1.53;;;7.80;99.90;;;;;;5014080;28;20486;-71
2022/02/18 09:30:21;;;;;;;2.77;1.77;;;7.80;99.90;;;;;;5014190;28;20412;-71
2022/02/18 09:32:46;;;;;;;7.33;2.70;;;7.90;99.90;;;;;;5013896;28;20172;-71
2022/02/18 09:35:12;;;;;;;4.13;1.90;;;7.90;99.90;;;;;;5013861;28;20192;-71
2022/02/18 09:37:37;;;;;;;2.10;1.73;;;7.90;99.90;;;;;;5013728;28;20172;-71
2022/02/18 09:40:08;;;;;;;6.63;2.10;;;7.90;99.90;;;;;;5013457;28;20168;-71
2022/02/18 09:42:36;;;;;;;1.87;1.70;;;7.90;99.90;;;;;;5013495;28;20180;-71
2022/02/18 09:45:03;;;;;;;1.67;1.57;;;8.00;99.90;;;;;;5013664;28;20428;-71
2022/02/18 09:47:32;;;;;;;2.00;1.70;;;7.90;99.90;;;;;;5013634;28;21007;-71
2022/02/18 09:49:57;;;;;;;4.20;1.90;;;7.90;99.90;;;;;;5013441;28;20410;-71
2022/02/18 09:52:24;;;;;;;3.60;1.50;;;8.00;99.90;;;;;;5013334;28;20411;-71
2022/02/18 09:54:49;;;;;;;4.53;2.20;;;8.10;99.90;;;;;;5013161;28;20672;-71
2022/02/18 09:57:16;;;;;;;5.30;1.40;;;8.10;99.90;;;;;;5013249;28;20411;-71
2022/02/18 09:59:42;;;;;;;1.83;1.57;;;8.20;99.90;;;;;;5012451;28;20653;-71
2022/02/18 10:02:08;;;;;;;2.03;1.47;;;8.10;99.90;;;;;;5013085;28;20423;-72
2022/02/18 10:04:33;;;;;;;1.23;1.13;;;8.10;99.90;;;;;;5013087;28;20385;-70
2022/02/18 10:07:02;;;;;;;2.10;1.77;;;8.30;99.90;;;;;;5013126;28;20685;-71
2022/02/18 10:09:37;;;;;;;2.07;1.83;;;8.30;99.90;;;;;;5013183;28;20544;-72
2022/02/18 10:12:02;;;;;;;4.20;1.93;;;8.30;99.90;;;;;;5013210;28;20751;-71
2022/02/18 10:14:51;;;;;;;1.53;1.40;;;8.30;99.90;;;;;;4995370;28;20416;-71
2022/02/18 10:17:16;;;;;;;1.80;1.70;;;8.40;99.90;;;;;;5013049;28;20228;-72
2022/02/18 10:19:55;;;;;;;4.53;1.30;;;8.50;99.90;;;;;;5012976;28;20415;-71
2022/02/18 10:22:27;;;;;;;1.93;1.50;;;8.40;99.90;;;;;;5012870;28;21007;-71
2022/02/18 10:24:54;;;;;;;4.77;1.10;;;8.30;99.90;;;;;;5012676;28;20412;-71
2022/02/18 10:27:40;;;;;;;1.67;1.13;;;8.40;99.90;;;;;;5012834;28;20454;-71
2022/02/18 10:30:06;;;;;;;2.70;1.83;;;8.40;99.90;;;;;;5012860;28;20533;-71
2022/02/18 10:32:39;;;;;;;8.53;1.53;;;8.40;99.90;;;;;;5012399;28;20408;-71
2022/02/18 10:35:05;;;;;;;1.40;1.30;;;8.50;99.90;;;;;;5012744;28;20435;-71
2022/02/18 10:37:32;;;;;;;1.83;1.70;;;8.30;99.90;;;;;;5012599;28;20465;-72
2022/02/18 10:40:18;;;;;;;1.33;1.23;;;8.40;99.90;;;;;;5012849;28;20172;-72
2022/02/18 10:42:45;;;;;;;2.60;1.33;;;8.50;99.90;;;;;;5012563;28;20414;-72
2022/02/18 10:45:16;;;;;;;1.97;1.80;;;8.60;99.90;;;;;;5011989;28;20439;-71
2022/02/18 10:47:43;;;;;;;2.50;1.37;;;8.50;99.90;;;;;;5012606;28;20458;-72
2022/02/18 10:50:21;;;;;;;1.07;0.97;;;8.50;99.90;;;;;;5012798;28;20418;-73
2022/02/18 10:53:08;;;;;;;2.80;1.70;;;8.50;99.90;;;;;;5012233;28;20514;-71
2022/02/18 10:55:51;;;;;;;4.70;1.67;;;8.50;99.90;;;;;;4994471;28;20429;-70
2022/02/18 10:58:23;;;;;;;3.07;1.40;;;8.50;99.90;;;;;;4993126;28;20491;-71
2022/02/18 11:01:11;;;;;;;3.60;1.33;;;8.60;99.90;;;;;;5001537;28;20803;-71
2022/02/18 11:03:57;;;;;;;5.33;1.63;;;8.60;99.90;;;;;;5012203;28;20411;-70
2022/02/18 11:06:28;;;;;;;2.60;1.27;;;8.60;99.90;;;;;;5012051;28;20465;-70
2022/02/18 11:09:04;;;;;;;1.83;1.20;;;8.60;99.90;;;;;;5012269;28;20409;-71
2022/02/18 11:11:31;;;;;;;1.60;1.10;;;8.60;99.90;;;;;;5012088;28;20391;-71
2022/02/18 11:13:59;;;;;;;2.40;1.07;;;8.70;99.90;;;;;;5012338;28;20410;-70
2022/02/18 11:16:25;;;;;;;4.77;2.50;;;8.60;99.90;;;;;;4994001;28;20841;-70
2022/02/18 11:18:52;;;;;;;1.43;1.27;;;8.70;99.90;;;;;;5011952;28;20784;-72
2022/02/18 11:21:18;;;;;;;0.87;0.87;;;8.50;99.90;;;;;;5011981;28;20826;-72
2022/02/18 11:23:44;;;;;;;1.20;1.10;;;8.40;99.90;;;;;;5011923;28;20415;-72
2022/02/18 11:26:15;;;;;;;3.80;1.13;;;8.40;99.90;;;;;;5011670;28;20207;-72
2022/02/18 11:28:42;;;;;;;2.70;1.17;;;8.30;99.90;;;;;;5010959;28;20917;-73
2022/02/18 11:31:14;;;;;;;1.70;1.50;;;8.20;99.90;;;;;;5011789;28;20969;-73
2022/02/18 11:33:58;;;;;;;1.13;1.03;;;8.10;99.90;;;;;;5011779;28;20451;-73
2022/02/18 11:36:52;;;;;;;1.27;1.13;;;7.70;99.90;;;;;;5011945;28;20813;-72
2022/02/18 11:39:37;;;;;;;1.10;1.00;;;7.60;99.90;;;;;;5011697;28;20430;-72
2022/02/18 11:42:17;;;;;;;2.40;0.90;;;7.50;99.90;;;;;;5011814;28;20407;-71
2022/02/18 11:44:43;;;;;;;3.27;1.00;;;7.40;99.90;;;;;;5011759;28;20489;-71
2022/02/18 11:47:17;;;;;;;1.03;0.80;;;7.40;99.90;;;;;;5011619;28;20542;-72
2022/02/18 11:49:44;;;;;;;1.30;1.17;;;7.30;99.90;;;;;;5011795;28;20165;-71
2022/02/18 11:52:11;;;;;;;1.30;1.00;;;7.30;99.90;;;;;;5011791;28;20409;-72
2022/02/18 11:54:37;;;;;;;0.80;0.80;;;7.20;99.90;;;;;;5011597;28;20404;-72
2022/02/18 11:57:05;;;;;;;1.53;1.10;;;7.10;99.90;;;;;;5011618;28;20427;-71
2022/02/18 11:59:59;;;;;;;1.47;1.20;;;7.10;99.90;;;;;;5011670;28;20878;-72
2022/02/18 12:02:37;;;;;;;2.10;1.90;;;7.20;99.90;;;;;;5011620;28;20407;-71
2022/02/18 12:05:05;;;;;;;1.13;1.10;;;7.30;99.90;;;;;;5011441;28;20435;-72
2022/02/18 12:07:30;;;;;;;1.47;1.30;;;7.30;99.90;;;;;;5011528;28;20521;-72
2022/02/18 12:10:07;;;;;;;4.37;1.90;;;7.40;99.90;;;;;;5011629;28;20407;-71
2022/02/18 12:12:35;;;;;;;2.07;1.70;;;7.30;99.90;;;;;;5011433;28;20171;-71
2022/02/18 12:15:09;;;;;;;3.13;1.33;;;7.40;99.90;;;;;;5011292;28;20403;-71
2022/02/18 12:17:37;;;;;;;1.70;1.60;;;7.40;99.90;;;;;;5011570;28;20886;-72
2022/02/18 12:20:15;;;;;;;3.67;1.20;;;7.30;99.90;;;;;;5011505;28;20457;-72
2022/02/18 12:22:40;;;;;;;2.33;1.43;;;7.40;99.90;;;;;;5012694;28;20452;-71
2022/02/18 12:25:28;;;;;;;1.20;1.10;;;7.40;99.90;;;;;;5014627;28;20961;-72
2022/02/18 12:28:18;;;;;;;1.13;1.03;;;7.50;99.90;;;;;;5015906;28;20199;-72
2022/02/18 12:30:56;;;;;;;2.53;1.50;;;7.60;99.90;;;;;;5016005;28;20886;-73
2022/02/18 12:33:22;;;;;;;1.47;1.30;;;7.60;99.90;;;;;;5022441;28;20403;-72
2022/02/18 12:35:47;;;;;;;1.90;1.80;;;7.70;99.90;;;;;;5023564;28;20898;-72
2022/02/18 12:38:14;;;;;;;1.70;1.17;;;7.70;99.90;;;;;;5019811;28;20227;-72
2022/02/18 12:40:42;;;;;;;1.47;1.37;;;7.70;99.90;;;;;;5020462;28;20177;-72
2022/02/18 12:43:17;;;;;;;2.20;1.10;;;7.80;99.90;;;;;;5019774;28;20487;-72
2022/02/18 12:45:46;;;;;;;2.13;1.70;;;7.80;99.90;;;;;;5019939;28;20454;-72
2022/02/18 12:48:12;;;;;;;2.23;1.10;;;7.90;99.90;;;;;;5020484;28;20859;-72
2022/02/18 12:50:41;;;;;;;6.03;1.40;;;7.90;99.90;;;;;;5021033;28;20438;-72
2022/02/18 12:53:08;;;;;;;2.43;1.90;;;7.90;99.90;;;;;;5020164;28;20400;-73
2022/02/18 12:55:35;;;;;;;1.97;1.10;;;7.80;99.90;;;;;;5021817;28;20450;-72
2022/02/18 12:58:03;;;;;;;2.37;1.90;;;7.90;99.90;;;;;;5020751;28;20414;-72
2022/02/18 13:00:31;;;;;;;1.73;1.63;;;7.90;99.90;;;;;;5021173;28;20434;-72